sensor_id;sensor_type;location;lat;lon;timestamp;pressure;altitude;pressure_sealevel;temperature;humidity
49030;BME280;43337;52.070;4.508;2023-04-03T00:02:04;103231.09;;;3.91;100.00
49030;BME280;43337;52.070;4.508;2023-04-03T00:04:29;103236.19;;;3.86;100.00
49030;BME280;43337;52.070;4.508;2023-04-03T00:06:55;103235.25;;;3.83;100.00
49030;BME280;43337;52.070;4.508;2023-04-03T00:09:20;103214.00;;;3.66;100.00
49030;BME280;43337;52.070;4.508;2023-04-03T00:11:45;103248.19;;;3.80;100.00
49030;BME280;43337;52.070;4.508;2023-04-03T00:14:12;103232.38;;;3.72;100.00
49030;BME280;43337;52.070;4.508;2023-04-03T00:16:39;103233.88;;;3.62;100.00
49030;BME280;43337;52.070;4.508;2023-04-03T00:19:05;103240.03;;;3.66;100.00
49030;BME280;43337;52.070;4.508;2023-04-03T00:21:30;103220.66;;;3.55;100.00
49030;BME280;43337;52.070;4.508;2023-04-03T00:23:56;103245.97;;;3.60;100.00
49030;BME280;43337;52.070;4.508;2023-04-03T00:26:22;103238.91;;;3.56;100.00
49030;BME280;43337;52.070;4.508;2023-04-03T00:28:47;103235.28;;;3.50;100.00
49030;BME280;43337;52.070;4.508;2023-04-03T00:31:14;103250.16;;;3.54;100.00
49030;BME280;43337;52.070;4.508;2023-04-03T00:33:41;103251.81;;;3.50;100.00
49030;BME280;43337;52.070;4.508;2023-04-03T00:36:09;103243.84;;;3.46;100.00
49030;BME280;43337;52.070;4.508;2023-04-03T00:38:36;103245.56;;;3.43;100.00
49030;BME280;43337;52.070;4.508;2023-04-03T00:41:02;103249.00;;;3.42;100.00
49030;BME280;43337;52.070;4.508;2023-04-03T00:43:27;103235.63;;;3.29;100.00
49030;BME280;43337;52.070;4.508;2023-04-03T00:45:56;103250.66;;;3.39;100.00
49030;BME280;43337;52.070;4.508;2023-04-03T00:48:26;103253.94;;;3.33;100.00
49030;BME280;43337;52.070;4.508;2023-04-03T00:50:53;103240.72;;;3.26;100.00
49030;BME280;43337;52.070;4.508;2023-04-03T00:53:25;103251.25;;;3.30;100.00
49030;BME280;43337;52.070;4.508;2023-04-03T00:55:54;103246.75;;;3.23;100.00
49030;BME280;43337;52.070;4.508;2023-04-03T00:58:21;103250.28;;;3.25;100.00
49030;BME280;43337;52.070;4.508;2023-04-03T01:00:54;103258.94;;;3.24;100.00
49030;BME280;43337;52.070;4.508;2023-04-03T01:03:22;103242.03;;;3.10;100.00
49030;BME280;43337;52.070;4.508;2023-04-03T01:05:48;103261.31;;;3.16;100.00
49030;BME280;43337;52.070;4.508;2023-04-03T01:08:14;103263.09;;;3.17;100.00
49030;BME280;43337;52.070;4.508;2023-04-03T01:10:39;103271.72;;;3.16;100.00
49030;BME280;43337;52.070;4.508;2023-04-03T01:15:45;103276.84;;;3.13;100.00
49030;BME280;43337;52.070;4.508;2023-04-03T01:18:10;103234.66;;;2.93;100.00
49030;BME280;43337;52.070;4.508;2023-04-03T01:20:50;103265.53;;;3.11;100.00
49030;BME280;43337;52.070;4.508;2023-04-03T01:23:25;103262.84;;;3.08;100.00
49030;BME280;43337;52.070;4.508;2023-04-03T01:25:54;103256.56;;;3.02;100.00
49030;BME280;43337;52.070;4.508;2023-04-03T01:31:07;103267.88;;;3.02;100.00
49030;BME280;43337;52.070;4.508;2023-04-03T01:33:37;103267.78;;;2.99;100.00
49030;BME280;43337;52.070;4.508;2023-04-03T01:36:03;103263.38;;;2.97;100.00
49030;BME280;43337;52.070;4.508;2023-04-03T01:38:29;103241.97;;;2.77;100.00
49030;BME280;43337;52.070;4.508;2023-04-03T01:40:55;103276.31;;;2.93;100.00
49030;BME280;43337;52.070;4.508;2023-04-03T01:43:20;103251.56;;;2.78;100.00
49030;BME280;43337;52.070;4.508;2023-04-03T01:45:46;103232.16;;;2.66;100.00
49030;BME280;43337;52.070;4.508;2023-04-03T01:48:12;103258.56;;;2.80;100.00
49030;BME280;43337;52.070;4.508;2023-04-03T01:50:37;103239.16;;;2.69;100.00
49030;BME280;43337;52.070;4.508;2023-04-03T01:53:03;103250.41;;;2.68;100.00
49030;BME280;43337;52.070;4.508;2023-04-03T01:55:28;103267.09;;;2.75;100.00
49030;BME280;43337;52.070;4.508;2023-04-03T01:57:53;103273.03;;;2.71;100.00
49030;BME280;43337;52.070;4.508;2023-04-03T02:00:19;103250.16;;;2.59;100.00
49030;BME280;43337;52.070;4.508;2023-04-03T02:02:45;103275.41;;;2.63;100.00
49030;BME280;43337;52.070;4.508;2023-04-03T02:05:10;103256.88;;;2.52;100.00
49030;BME280;43337;52.070;4.508;2023-04-03T02:07:35;103269.00;;;2.52;100.00
49030;BME280;43337;52.070;4.508;2023-04-03T02:10:01;103275.94;;;2.51;100.00
49030;BME280;43337;52.070;4.508;2023-04-03T02:12:26;103267.94;;;2.45;100.00
49030;BME280;43337;52.070;4.508;2023-04-03T02:14:51;103273.88;;;2.41;100.00
49030;BME280;43337;52.070;4.508;2023-04-03T02:17:17;103258.84;;;2.31;100.00
49030;BME280;43337;52.070;4.508;2023-04-03T02:19:42;103271.25;;;2.39;100.00
49030;BME280;43337;52.070;4.508;2023-04-03T02:22:08;103269.06;;;2.26;100.00
49030;BME280;43337;52.070;4.508;2023-04-03T02:24:33;103282.31;;;2.34;100.00
49030;BME280;43337;52.070;4.508;2023-04-03T02:26:59;103259.16;;;2.13;100.00
49030;BME280;43337;52.070;4.508;2023-04-03T02:29:24;103278.59;;;2.26;100.00
49030;BME280;43337;52.070;4.508;2023-04-03T02:31:50;103288.09;;;2.24;100.00
49030;BME280;43337;52.070;4.508;2023-04-03T02:34:17;103297.66;;;2.26;100.00
49030;BME280;43337;52.070;4.508;2023-04-03T02:36:42;103301.06;;;2.24;100.00
49030;BME280;43337;52.070;4.508;2023-04-03T02:39:08;103285.16;;;2.14;100.00
49030;BME280;43337;52.070;4.508;2023-04-03T02:41:34;103246.34;;;1.92;100.00
49030;BME280;43337;52.070;4.508;2023-04-03T02:44:03;103251.47;;;1.89;100.00
49030;BME280;43337;52.070;4.508;2023-04-03T02:46:29;103304.34;;;2.18;100.00
49030;BME280;43337;52.070;4.508;2023-04-03T02:48:55;103301.63;;;2.15;100.00
49030;BME280;43337;52.070;4.508;2023-04-03T02:51:21;103300.72;;;2.13;100.00
49030;BME280;43337;52.070;4.508;2023-04-03T02:53:49;103288.25;;;2.03;100.00
49030;BME280;43337;52.070;4.508;2023-04-03T02:56:15;103291.69;;;2.02;100.00
49030;BME280;43337;52.070;4.508;2023-04-03T02:58:43;103282.88;;;1.97;100.00
49030;BME280;43337;52.070;4.508;2023-04-03T03:01:09;103290.59;;;1.95;100.00
49030;BME280;43337;52.070;4.508;2023-04-03T03:03:34;103294.09;;;1.95;100.00
49030;BME280;43337;52.070;4.508;2023-04-03T03:06:04;103289.44;;;1.85;100.00
49030;BME280;43337;52.070;4.508;2023-04-03T03:08:30;103307.00;;;1.92;100.00
49030;BME280;43337;52.070;4.508;2023-04-03T03:10:56;103307.78;;;1.90;100.00
49030;BME280;43337;52.070;4.508;2023-04-03T03:13:21;103286.53;;;1.76;100.00
49030;BME280;43337;52.070;4.508;2023-04-03T03:15:46;103280.34;;;1.73;100.00
49030;BME280;43337;52.070;4.508;2023-04-03T03:18:12;103312.75;;;1.84;100.00
49030;BME280;43337;52.070;4.508;2023-04-03T03:20:37;103269.44;;;1.57;100.00
49030;BME280;43337;52.070;4.508;2023-04-03T03:23:02;103297.53;;;1.69;100.00
49030;BME280;43337;52.070;4.508;2023-04-03T03:25:28;103288.69;;;1.62;100.00
49030;BME280;43337;52.070;4.508;2023-04-03T03:27:53;103300.84;;;1.65;100.00
49030;BME280;43337;52.070;4.508;2023-04-03T03:30:19;103303.41;;;1.63;100.00
49030;BME280;43337;52.070;4.508;2023-04-03T03:32:44;103304.97;;;1.58;100.00
49030;BME280;43337;52.070;4.508;2023-04-03T03:35:10;103305.78;;;1.57;100.00
49030;BME280;43337;52.070;4.508;2023-04-03T03:37:35;103321.47;;;1.60;100.00
49030;BME280;43337;52.070;4.508;2023-04-03T03:40:00;103301.94;;;1.46;100.00
49030;BME280;43337;52.070;4.508;2023-04-03T03:42:26;103329.16;;;1.57;100.00
49030;BME280;43337;52.070;4.508;2023-04-03T03:44:51;103322.94;;;1.52;100.00
49030;BME280;43337;52.070;4.508;2023-04-03T03:47:17;103314.09;;;1.47;100.00
49030;BME280;43337;52.070;4.508;2023-04-03T03:49:42;103331.59;;;1.53;100.00
49030;BME280;43337;52.070;4.508;2023-04-03T03:52:07;103335.78;;;1.49;100.00
49030;BME280;43337;52.070;4.508;2023-04-03T03:54:36;103330.44;;;1.44;100.00
49030;BME280;43337;52.070;4.508;2023-04-03T03:57:02;103329.53;;;1.42;100.00
49030;BME280;43337;52.070;4.508;2023-04-03T03:59:27;103315.59;;;1.40;100.00
49030;BME280;43337;52.070;4.508;2023-04-03T04:01:54;103328.69;;;1.43;100.00
49030;BME280;43337;52.070;4.508;2023-04-03T04:04:20;103303.19;;;1.32;100.00
49030;BME280;43337;52.070;4.508;2023-04-03T04:06:46;103310.25;;;1.36;100.00
49030;BME280;43337;52.070;4.508;2023-04-03T04:09:12;103318.03;;;1.36;100.00
49030;BME280;43337;52.070;4.508;2023-04-03T04:11:37;103324.88;;;1.34;100.00
49030;BME280;43337;52.070;4.508;2023-04-03T04:14:05;103302.56;;;1.15;100.00
49030;BME280;43337;52.070;4.508;2023-04-03T04:16:30;103329.91;;;1.29;100.00
49030;BME280;43337;52.070;4.508;2023-04-03T04:18:55;103333.34;;;1.28;100.00
49030;BME280;43337;52.070;4.508;2023-04-03T04:21:21;103316.53;;;1.18;100.00
49030;BME280;43337;52.070;4.508;2023-04-03T04:23:46;103329.69;;;1.23;100.00
49030;BME280;43337;52.070;4.508;2023-04-03T04:26:11;103327.91;;;1.22;100.00
49030;BME280;43337;52.070;4.508;2023-04-03T04:28:37;103333.94;;;1.21;100.00
49030;BME280;43337;52.070;4.508;2023-04-03T04:31:02;103335.56;;;1.19;100.00
49030;BME280;43337;52.070;4.508;2023-04-03T04:33:27;103317.97;;;1.10;100.00
49030;BME280;43337;52.070;4.508;2023-04-03T04:35:53;103338.09;;;1.16;100.00
49030;BME280;43337;52.070;4.508;2023-04-03T04:38:18;103335.28;;;1.11;100.00
49030;BME280;43337;52.070;4.508;2023-04-03T04:40:43;103322.75;;;1.00;100.00
49030;BME280;43337;52.070;4.508;2023-04-03T04:43:09;103341.41;;;1.12;100.00
49030;BME280;43337;52.070;4.508;2023-04-03T04:45:35;103286.44;;;0.76;100.00
49030;BME280;43337;52.070;4.508;2023-04-03T04:48:01;103305.00;;;0.86;100.00
49030;BME280;43337;52.070;4.508;2023-04-03T04:50:26;103312.81;;;0.88;100.00
49030;BME280;43337;52.070;4.508;2023-04-03T04:52:51;103340.09;;;1.01;100.00
49030;BME280;43337;52.070;4.508;2023-04-03T04:55:18;103331.22;;;0.94;100.00
49030;BME280;43337;52.070;4.508;2023-04-03T04:57:45;103328.63;;;0.94;100.00
49030;BME280;43337;52.070;4.508;2023-04-03T05:00:11;103347.94;;;1.02;100.00
49030;BME280;43337;52.070;4.508;2023-04-03T05:02:37;103351.38;;;1.01;100.00
49030;BME280;43337;52.070;4.508;2023-04-03T05:05:02;103329.25;;;0.88;100.00
49030;BME280;43337;52.070;4.508;2023-04-03T05:07:28;103344.94;;;0.91;100.00
49030;BME280;43337;52.070;4.508;2023-04-03T05:09:53;103341.53;;;0.92;100.00
49030;BME280;43337;52.070;4.508;2023-04-03T05:12:19;103339.53;;;0.85;100.00
49030;BME280;43337;52.070;4.508;2023-04-03T05:14:44;103352.84;;;0.94;100.00
49030;BME280;43337;52.070;4.508;2023-04-03T05:17:09;103344.88;;;0.90;100.00
49030;BME280;43337;52.070;4.508;2023-04-03T05:19:35;103362.28;;;0.92;100.00
49030;BME280;43337;52.070;4.508;2023-04-03T05:22:00;103351.78;;;0.89;100.00
49030;BME280;43337;52.070;4.508;2023-04-03T05:24:25;103364.09;;;0.95;100.00
49030;BME280;43337;52.070;4.508;2023-04-03T05:26:51;103360.44;;;0.90;100.00
49030;BME280;43337;52.070;4.508;2023-04-03T05:29:16;103356.97;;;0.89;100.00
49030;BME280;43337;52.070;4.508;2023-04-03T05:31:42;103355.09;;;0.85;100.00
49030;BME280;43337;52.070;4.508;2023-04-03T05:34:07;103373.53;;;0.93;100.00
49030;BME280;43337;52.070;4.508;2023-04-03T05:36:32;103370.94;;;0.93;100.00
49030;BME280;43337;52.070;4.508;2023-04-03T05:38:58;103355.88;;;0.84;100.00
49030;BME280;43337;52.070;4.508;2023-04-03T05:41:23;103377.19;;;0.98;100.00
49030;BME280;43337;52.070;4.508;2023-04-03T05:43:49;103364.88;;;0.92;100.00
49030;BME280;43337;52.070;4.508;2023-04-03T05:46:16;103374.63;;;1.00;100.00
49030;BME280;43337;52.070;4.508;2023-04-03T05:48:43;103368.53;;;0.97;100.00
49030;BME280;43337;52.070;4.508;2023-04-03T05:51:15;103367.69;;;0.98;100.00
49030;BME280;43337;52.070;4.508;2023-04-03T05:53:41;103379.00;;;1.01;100.00
49030;BME280;43337;52.070;4.508;2023-04-03T05:56:06;103364.91;;;0.94;100.00
49030;BME280;43337;52.070;4.508;2023-04-03T05:58:32;103381.03;;;1.08;100.00
49030;BME280;43337;52.070;4.508;2023-04-03T06:00:57;103378.63;;;1.14;100.00
49030;BME280;43337;52.070;4.508;2023-04-03T06:03:23;103374.31;;;1.14;100.00
49030;BME280;43337;52.070;4.508;2023-04-03T06:05:48;103380.03;;;1.28;100.00
49030;BME280;43337;52.070;4.508;2023-04-03T06:08:13;103382.03;;;1.35;100.00
49030;BME280;43337;52.070;4.508;2023-04-03T06:10:39;103391.09;;;1.46;100.00
49030;BME280;43337;52.070;4.508;2023-04-03T06:13:04;103387.94;;;1.55;100.00
49030;BME280;43337;52.070;4.508;2023-04-03T06:15:31;103346.50;;;1.34;100.00
49030;BME280;43337;52.070;4.508;2023-04-03T06:17:56;103380.47;;;1.64;100.00
49030;BME280;43337;52.070;4.508;2023-04-03T06:20:22;103393.88;;;1.77;100.00
49030;BME280;43337;52.070;4.508;2023-04-03T06:22:47;103366.72;;;1.67;100.00
49030;BME280;43337;52.070;4.508;2023-04-03T06:25:15;103404.03;;;1.94;100.00
49030;BME280;43337;52.070;4.508;2023-04-03T06:27:42;103391.00;;;1.93;100.00
49030;BME280;43337;52.070;4.508;2023-04-03T06:30:08;103412.41;;;2.11;100.00
49030;BME280;43337;52.070;4.508;2023-04-03T06:32:33;103393.44;;;2.14;100.00
49030;BME280;43337;52.070;4.508;2023-04-03T06:34:58;103406.94;;;2.29;100.00
49030;BME280;43337;52.070;4.508;2023-04-03T06:37:25;103390.72;;;2.36;100.00
49030;BME280;43337;52.070;4.508;2023-04-03T06:39:55;103405.78;;;2.47;100.00
49030;BME280;43337;52.070;4.508;2023-04-03T06:42:20;103383.19;;;2.45;100.00
49030;BME280;43337;52.070;4.508;2023-04-03T06:44:46;103375.56;;;2.50;100.00
49030;BME280;43337;52.070;4.508;2023-04-03T06:47:16;103401.13;;;2.63;100.00
49030;BME280;43337;52.070;4.508;2023-04-03T06:49:42;103395.31;;;2.72;100.00
49030;BME280;43337;52.070;4.508;2023-04-03T06:52:08;103386.69;;;2.73;100.00
49030;BME280;43337;52.070;4.508;2023-04-03T06:54:34;103404.56;;;2.91;100.00
49030;BME280;43337;52.070;4.508;2023-04-03T06:56:59;103408.25;;;2.98;100.00
49030;BME280;43337;52.070;4.508;2023-04-03T06:59:25;103396.09;;;2.97;100.00
49030;BME280;43337;52.070;4.508;2023-04-03T07:01:50;103385.94;;;3.06;100.00
49030;BME280;43337;52.070;4.508;2023-04-03T07:04:17;103412.56;;;3.26;100.00
49030;BME280;43337;52.070;4.508;2023-04-03T07:06:42;103401.25;;;3.25;100.00
49030;BME280;43337;52.070;4.508;2023-04-03T07:09:09;103420.16;;;3.48;100.00
49030;BME280;43337;52.070;4.508;2023-04-03T07:11:35;103410.59;;;3.49;100.00
49030;BME280;43337;52.070;4.508;2023-04-03T07:14:01;103379.16;;;3.41;100.00
49030;BME280;43337;52.070;4.508;2023-04-03T07:16:27;103427.75;;;3.72;100.00
49030;BME280;43337;52.070;4.508;2023-04-03T07:18:52;103429.56;;;3.75;100.00
49030;BME280;43337;52.070;4.508;2023-04-03T07:21:18;103429.75;;;3.81;100.00
49030;BME280;43337;52.070;4.508;2023-04-03T07:23:43;103425.44;;;3.83;100.00
49030;BME280;43337;52.070;4.508;2023-04-03T07:26:09;103432.72;;;3.95;100.00
49030;BME280;43337;52.070;4.508;2023-04-03T07:28:34;103436.31;;;4.00;100.00
49030;BME280;43337;52.070;4.508;2023-04-03T07:31:06;103440.84;;;4.07;100.00
49030;BME280;43337;52.070;4.508;2023-04-03T07:33:34;103439.31;;;4.13;100.00
49030;BME280;43337;52.070;4.508;2023-04-03T07:36:00;103427.16;;;4.14;100.00
49030;BME280;43337;52.070;4.508;2023-04-03T07:38:26;103429.06;;;4.21;100.00
49030;BME280;43337;52.070;4.508;2023-04-03T07:40:52;103419.59;;;4.23;100.00
49030;BME280;43337;52.070;4.508;2023-04-03T07:43:18;103446.25;;;4.48;100.00
49030;BME280;43337;52.070;4.508;2023-04-03T07:45:45;103432.22;;;4.43;100.00
49030;BME280;43337;52.070;4.508;2023-04-03T07:48:12;103444.00;;;4.61;100.00
49030;BME280;43337;52.070;4.508;2023-04-03T07:50:45;103434.28;;;4.56;100.00
49030;BME280;43337;52.070;4.508;2023-04-03T07:53:11;103402.69;;;4.44;100.00
49030;BME280;43337;52.070;4.508;2023-04-03T07:55:36;103393.13;;;4.44;100.00
49030;BME280;43337;52.070;4.508;2023-04-03T07:58:17;103401.91;;;4.48;100.00
49030;BME280;43337;52.070;4.508;2023-04-03T08:00:44;103449.78;;;4.84;100.00
49030;BME280;43337;52.070;4.508;2023-04-03T08:03:11;103443.78;;;4.88;100.00
49030;BME280;43337;52.070;4.508;2023-04-03T08:05:37;103450.06;;;4.97;100.00
49030;BME280;43337;52.070;4.508;2023-04-03T08:08:04;103460.59;;;5.01;100.00
49030;BME280;43337;52.070;4.508;2023-04-03T08:10:30;103456.34;;;5.06;100.00
49030;BME280;43337;52.070;4.508;2023-04-03T08:12:56;103457.41;;;5.14;100.00
49030;BME280;43337;52.070;4.508;2023-04-03T08:15:21;103442.50;;;5.10;100.00
49030;BME280;43337;52.070;4.508;2023-04-03T08:17:47;103457.63;;;5.25;100.00
49030;BME280;43337;52.070;4.508;2023-04-03T08:20:12;103438.38;;;5.20;100.00
49030;BME280;43337;52.070;4.508;2023-04-03T08:22:38;103449.97;;;5.33;100.00
49030;BME280;43337;52.070;4.508;2023-04-03T08:25:03;103459.00;;;5.47;100.00
49030;BME280;43337;52.070;4.508;2023-04-03T08:27:29;103459.88;;;5.49;100.00
49030;BME280;43337;52.070;4.508;2023-04-03T08:29:55;103448.56;;;5.49;100.00
49030;BME280;43337;52.070;4.508;2023-04-03T08:32:22;103464.53;;;5.64;100.00
49030;BME280;43337;52.070;4.508;2023-04-03T08:34:47;103463.75;;;5.68;100.00
49030;BME280;43337;52.070;4.508;2023-04-03T08:37:12;103452.47;;;5.69;100.00
49030;BME280;43337;52.070;4.508;2023-04-03T08:39:38;103471.09;;;5.86;100.00
49030;BME280;43337;52.070;4.508;2023-04-03T08:45:01;103454.63;;;5.92;100.00
49030;BME280;43337;52.070;4.508;2023-04-03T08:50:11;103466.41;;;6.14;100.00
49030;BME280;43337;52.070;4.508;2023-04-03T08:52:52;103465.66;;;6.19;100.00
49030;BME280;43337;52.070;4.508;2023-04-03T08:55:43;103469.38;;;6.32;100.00
49030;BME280;43337;52.070;4.508;2023-04-03T08:58:33;103463.41;;;6.41;99.18
49030;BME280;43337;52.070;4.508;2023-04-03T09:03:41;103455.81;;;6.56;100.00
49030;BME280;43337;52.070;4.508;2023-04-03T09:06:12;103456.00;;;6.68;100.00
49030;BME280;43337;52.070;4.508;2023-04-03T09:11:12;103450.19;;;6.86;100.00
49030;BME280;43337;52.070;4.508;2023-04-03T09:16:54;103439.81;;;6.95;95.76
49030;BME280;43337;52.070;4.508;2023-04-03T09:22:21;103463.91;;;7.30;97.30
49030;BME280;43337;52.070;4.508;2023-04-03T09:25:20;103463.22;;;7.44;88.86
49030;BME280;43337;52.070;4.508;2023-04-03T09:27:47;103441.50;;;7.54;100.00
49030;BME280;43337;52.070;4.508;2023-04-03T09:30:22;103445.16;;;7.68;85.23
49030;BME280;43337;52.070;4.508;2023-04-03T09:32:53;103451.41;;;7.79;100.00
49030;BME280;43337;52.070;4.508;2023-04-03T09:35:29;103450.56;;;7.83;86.85
49030;BME280;43337;52.070;4.508;2023-04-03T09:38:14;103443.69;;;7.95;91.79
49030;BME280;43337;52.070;4.508;2023-04-03T09:41:11;103431.56;;;8.04;89.36
49030;BME280;43337;52.070;4.508;2023-04-03T09:43:38;103438.63;;;8.12;86.78
49030;BME280;43337;52.070;4.508;2023-04-03T09:48:56;103427.38;;;8.23;69.33
49030;BME280;43337;52.070;4.508;2023-04-03T09:51:25;103416.84;;;8.20;66.92
49030;BME280;43337;52.070;4.508;2023-04-03T09:53:51;103423.03;;;8.28;66.61
49030;BME280;43337;52.070;4.508;2023-04-03T09:56:21;103426.53;;;8.27;62.45
49030;BME280;43337;52.070;4.508;2023-04-03T09:58:48;103432.66;;;8.29;56.17
49030;BME280;43337;52.070;4.508;2023-04-03T10:01:26;103419.50;;;8.23;49.02
49030;BME280;43337;52.070;4.508;2023-04-03T10:04:21;103415.09;;;8.22;44.96
49030;BME280;43337;52.070;4.508;2023-04-03T10:06:50;103399.41;;;8.27;57.19
49030;BME280;43337;52.070;4.508;2023-04-03T10:09:22;103398.69;;;8.42;57.01
49030;BME280;43337;52.070;4.508;2023-04-03T10:12:07;103409.22;;;8.48;52.70
49030;BME280;43337;52.070;4.508;2023-04-03T10:14:40;103402.25;;;8.51;54.39
49030;BME280;43337;52.070;4.508;2023-04-03T10:17:42;103400.56;;;8.64;55.94
49030;BME280;43337;52.070;4.508;2023-04-03T10:20:33;103397.94;;;8.63;44.39
49030;BME280;43337;52.070;4.508;2023-04-03T10:23:05;103400.59;;;8.67;53.62
49030;BME280;43337;52.070;4.508;2023-04-03T10:28:40;103398.88;;;8.71;44.59
49030;BME280;43337;52.070;4.508;2023-04-03T10:31:18;103395.44;;;8.76;48.22
49030;BME280;43337;52.070;4.508;2023-04-03T10:36:36;103391.13;;;8.92;53.15
49030;BME280;43337;52.070;4.508;2023-04-03T10:39:20;103395.53;;;8.96;51.19
49030;BME280;43337;52.070;4.508;2023-04-03T10:42:17;103378.88;;;8.99;47.23
49030;BME280;43337;52.070;4.508;2023-04-03T10:45:03;103396.47;;;9.11;52.18
49030;BME280;43337;52.070;4.508;2023-04-03T10:48:53;103390.38;;;9.18;47.53
49030;BME280;43337;52.070;4.508;2023-04-03T10:58:41;103380.84;;;9.38;49.05
49030;BME280;43337;52.070;4.508;2023-04-03T11:01:27;103356.25;;;9.38;49.37
49030;BME280;43337;52.070;4.508;2023-04-03T11:03:57;103371.19;;;9.48;48.03
49030;BME280;43337;52.070;4.508;2023-04-03T11:06:25;103381.75;;;9.63;48.37
49030;BME280;43337;52.070;4.508;2023-04-03T11:08:57;103383.50;;;9.55;46.86
49030;BME280;43337;52.070;4.508;2023-04-03T11:11:31;103350.13;;;9.36;47.36
49030;BME280;43337;52.070;4.508;2023-04-03T11:14:03;103356.28;;;9.45;47.64
49030;BME280;43337;52.070;4.508;2023-04-03T11:16:33;103369.47;;;9.56;46.49
49030;BME280;43337;52.070;4.508;2023-04-03T11:19:03;103361.59;;;9.61;47.73
49030;BME280;43337;52.070;4.508;2023-04-03T11:22:01;103372.13;;;9.64;39.41
49030;BME280;43337;52.070;4.508;2023-04-03T11:24:32;103354.56;;;9.57;44.85
49030;BME280;43337;52.070;4.508;2023-04-03T11:26:59;103368.63;;;9.71;46.41
49030;BME280;43337;52.070;4.508;2023-04-03T11:29:35;103353.72;;;9.65;42.15
49030;BME280;43337;52.070;4.508;2023-04-03T11:32:21;103363.38;;;9.72;39.25
49030;BME280;43337;52.070;4.508;2023-04-03T11:34:55;103363.38;;;9.77;43.27
49030;BME280;43337;52.070;4.508;2023-04-03T11:42:49;103342.34;;;9.91;40.94
49030;BME280;43337;52.070;4.508;2023-04-03T11:47:51;103324.78;;;9.87;41.81
49030;BME280;43337;52.070;4.508;2023-04-03T12:00:45;103323.06;;;10.01;35.91
49030;BME280;43337;52.070;4.508;2023-04-03T12:19:29;103295.84;;;10.23;34.06
49030;BME280;43337;52.070;4.508;2023-04-03T12:24:28;103298.47;;;10.30;36.99
49030;BME280;43337;52.070;4.508;2023-04-03T12:42:31;103274.75;;;10.49;34.91
49030;BME280;43337;52.070;4.508;2023-04-03T12:45:20;103279.97;;;10.60;33.03
49030;BME280;43337;52.070;4.508;2023-04-03T12:47:49;103273.81;;;10.69;37.92
49030;BME280;43337;52.070;4.508;2023-04-03T12:50:25;103272.91;;;10.74;37.67
49030;BME280;43337;52.070;4.508;2023-04-03T12:53:22;103271.09;;;10.80;35.76
49030;BME280;43337;52.070;4.508;2023-04-03T12:55:54;103271.06;;;10.90;38.52
49030;BME280;43337;52.070;4.508;2023-04-03T12:58:27;103257.84;;;10.95;37.85
49030;BME280;43337;52.070;4.508;2023-04-03T13:01:15;103258.69;;;11.06;38.54
49030;BME280;43337;52.070;4.508;2023-04-03T13:03:48;103263.03;;;11.16;38.64
49030;BME280;43337;52.070;4.508;2023-04-03T13:06:18;103251.53;;;11.22;37.61
49030;BME280;43337;52.070;4.508;2023-04-03T13:08:49;103257.72;;;11.18;37.11
49030;BME280;43337;52.070;4.508;2023-04-03T13:11:14;103261.25;;;11.20;39.66
49030;BME280;43337;52.070;4.508;2023-04-03T13:14:03;103265.66;;;11.16;36.65
49030;BME280;43337;52.070;4.508;2023-04-03T13:16:31;103254.25;;;11.10;39.47
49030;BME280;43337;52.070;4.508;2023-04-03T13:18:57;103246.44;;;10.91;38.19
49030;BME280;43337;52.070;4.508;2023-04-03T13:21:26;103250.88;;;10.89;39.04
49030;BME280;43337;52.070;4.508;2023-04-03T13:23:59;103270.16;;;10.91;37.67
49030;BME280;43337;52.070;4.508;2023-04-03T13:26:28;103256.16;;;10.85;37.13
49030;BME280;43337;52.070;4.508;2023-04-03T13:28:58;103260.53;;;10.92;39.07
49030;BME280;43337;52.070;4.508;2023-04-03T13:31:27;103250.84;;;10.91;38.41
49030;BME280;43337;52.070;4.508;2023-04-03T13:36:42;103251.75;;;10.88;38.19
49030;BME280;43337;52.070;4.508;2023-04-03T13:39:31;103237.72;;;10.85;37.23
49030;BME280;43337;52.070;4.508;2023-04-03T13:42:21;103244.66;;;10.98;40.67
49030;BME280;43337;52.070;4.508;2023-04-03T13:44:47;103219.16;;;11.05;40.34
49030;BME280;43337;52.070;4.508;2023-04-03T13:47:22;103233.13;;;11.17;37.90
49030;BME280;43337;52.070;4.508;2023-04-03T13:55:20;103227.69;;;11.43;39.14
49030;BME280;43337;52.070;4.508;2023-04-03T13:57:59;103232.09;;;11.40;37.75
49030;BME280;43337;52.070;4.508;2023-04-03T14:03:44;103218.94;;;11.35;36.33
49030;BME280;43337;52.070;4.508;2023-04-03T14:06:14;103211.88;;;11.40;39.71
49030;BME280;43337;52.070;4.508;2023-04-03T14:08:40;103209.28;;;11.33;39.05
49030;BME280;43337;52.070;4.508;2023-04-03T14:11:10;103167.22;;;11.17;38.60
49030;BME280;43337;52.070;4.508;2023-04-03T14:13:37;103216.28;;;11.38;38.51
49030;BME280;43337;52.070;4.508;2023-04-03T14:16:03;103209.19;;;11.45;40.00
49030;BME280;43337;52.070;4.508;2023-04-03T14:18:28;103194.22;;;11.50;39.73
49030;BME280;43337;52.070;4.508;2023-04-03T14:20:54;103200.22;;;11.64;40.06
49030;BME280;43337;52.070;4.508;2023-04-03T14:23:19;103186.22;;;11.61;39.65
49030;BME280;43337;52.070;4.508;2023-04-03T14:25:45;103185.28;;;11.66;39.68
49030;BME280;43337;52.070;4.508;2023-04-03T14:28:19;103188.72;;;11.76;39.94
49030;BME280;43337;52.070;4.508;2023-04-03T14:30:47;103193.03;;;11.82;39.74
49030;BME280;43337;52.070;4.508;2023-04-03T14:33:15;103177.28;;;11.74;39.42
49030;BME280;43337;52.070;4.508;2023-04-03T14:35:42;103190.44;;;11.80;40.74
49030;BME280;43337;52.070;4.508;2023-04-03T14:38:25;103185.03;;;11.91;38.75
49030;BME280;43337;52.070;4.508;2023-04-03T14:40:52;103172.66;;;11.97;40.78
49030;BME280;43337;52.070;4.508;2023-04-03T14:43:18;103190.16;;;12.08;39.59
49030;BME280;43337;52.070;4.508;2023-04-03T14:45:44;103163.97;;;11.89;39.85